Glover, Vermont
Current Conditions -  °F | °C
As of 3:35 AM on Thursday 18 Dec 2014 (Local Time) from KCDA Reporting Station
Light Snow Light Snow  
Wind Chill: -2°   Ceiling: 1200
Heat Index:   Visibility: 2mi
Dew Point:   Wind: 5mph
Humidity: 95%   Direction: 270°W
Pressure: 29.69"   Gusts: NA
Location:  44.7°N, 72.21°W
Report Text: KCDA 180835Z AUTO 27004KT 2SM -SN BKN012 OVC021 00/00 A2969 RMK AO2 T00041003
Loading
Personal Weather Stations






























Interactive Weather Map New forecast layout! Learn more

10-Day Weather Forecast

Advertisements
Track Severe Weather on mobile